createdAt,value
2022-11-16T00:01:13.159Z,98950.75
2022-11-16T00:03:40.675Z,98921.75
2022-11-16T00:06:08.611Z,98940.53
2022-11-16T00:08:44.127Z,98927.13
2022-11-16T00:11:15.994Z,98909.56
2022-11-16T00:13:44.143Z,98950.56
2022-11-16T00:16:16.684Z,98933.75
2022-11-16T00:18:44.833Z,98905.13
2022-11-16T00:21:12.151Z,98917.75
2022-11-16T00:23:39.387Z,98941.72
2022-11-16T00:26:08.449Z,98930.03
2022-11-16T00:28:36.731Z,98901.88
2022-11-16T00:31:05.839Z,98917.66
2022-11-16T00:33:36.949Z,98899.09
2022-11-16T00:36:05.923Z,98936.44
2022-11-16T00:38:36.562Z,98910.09
2022-11-16T00:41:05.689Z,98905.66
2022-11-16T00:43:34.250Z,98907.31
2022-11-16T00:46:01.576Z,98901.50
2022-11-16T00:48:28.579Z,98898.88
2022-11-16T00:50:55.716Z,98896.94
2022-11-16T00:53:23.305Z,98898.91
2022-11-16T00:55:50.781Z,98888.94
2022-11-16T00:58:20.165Z,98887.44
2022-11-16T01:00:52.619Z,98860.38
2022-11-16T01:03:20.101Z,98901.47
2022-11-16T01:05:47.302Z,98880.53
2022-11-16T01:08:14.780Z,98860.88
2022-11-16T01:10:42.131Z,98859.28
2022-11-16T01:13:12.165Z,98880.09
2022-11-16T01:15:39.075Z,98843.63
2022-11-16T01:18:06.005Z,98851.72
2022-11-16T01:20:33.062Z,98841.00
2022-11-16T01:23:00.070Z,98854.66
2022-11-16T01:25:26.916Z,98850.22
2022-11-16T01:27:53.909Z,98841.69
2022-11-16T01:30:30.014Z,98849.66
2022-11-16T01:33:04.017Z,98841.69
2022-11-16T01:35:30.948Z,98832.66
2022-11-16T01:37:58.339Z,98843.66
2022-11-16T01:40:27.667Z,98849.13
2022-11-16T01:42:54.935Z,98825.72
2022-11-16T01:45:35.431Z,98824.22
2022-11-16T01:48:05.494Z,98847.97
2022-11-16T01:50:34.839Z,98830.50
2022-11-16T01:53:05.904Z,98838.28
2022-11-16T01:55:44.626Z,98820.69
2022-11-16T01:58:44.834Z,98824.88
2022-11-16T02:01:17.176Z,98797.91
2022-11-16T02:03:50.022Z,98783.28
2022-11-16T02:06:23.109Z,98784.16
2022-11-16T02:09:25.688Z,98803.94
2022-11-16T02:12:00.720Z,98803.53
2022-11-16T02:14:53.904Z,98782.09
2022-11-16T02:17:26.082Z,98782.00
2022-11-16T02:20:30.562Z,98769.06
2022-11-16T02:23:34.800Z,98771.59
2022-11-16T02:26:14.096Z,98790.28
2022-11-16T02:28:46.758Z,98776.91
2022-11-16T02:31:26.936Z,98764.41
2022-11-16T02:33:59.457Z,98766.66
2022-11-16T02:36:26.767Z,98761.88
2022-11-16T02:39:02.728Z,98762.31
2022-11-16T02:41:34.223Z,98750.25
2022-11-16T02:44:07.275Z,98758.59
2022-11-16T02:46:39.092Z,98742.09
2022-11-16T02:49:13.824Z,98753.94
2022-11-16T02:51:42.608Z,98761.22
2022-11-16T02:54:21.277Z,98743.13
2022-11-16T02:57:16.961Z,98737.38
2022-11-16T02:59:51.542Z,98751.31
2022-11-16T03:02:47.191Z,98752.97
2022-11-16T03:05:20.286Z,98753.06
2022-11-16T03:08:04.070Z,98735.00
2022-11-16T03:10:34.428Z,98761.16
2022-11-16T03:13:07.791Z,98737.19
2022-11-16T03:15:39.254Z,98725.09
2022-11-16T03:18:08.854Z,98726.03
2022-11-16T03:20:38.795Z,98738.28
2022-11-16T03:23:10.851Z,98720.25
2022-11-16T03:25:52.687Z,98729.84
2022-11-16T03:28:47.757Z,98745.88
2022-11-16T03:31:24.492Z,98723.97
2022-11-16T03:33:56.301Z,98690.34
2022-11-16T03:36:35.068Z,98729.25
2022-11-16T03:39:12.779Z,98733.56
2022-11-16T03:41:44.140Z,98723.44
2022-11-16T03:44:15.418Z,98732.31
2022-11-16T03:46:44.462Z,98730.22
2022-11-16T03:49:15.645Z,98721.25
2022-11-16T03:51:45.782Z,98714.59
2022-11-16T03:54:13.025Z,98708.41
2022-11-16T03:56:40.718Z,98713.31
2022-11-16T03:59:08.530Z,98723.63
2022-11-16T04:01:38.215Z,98720.88
2022-11-16T04:04:10.352Z,98707.97
2022-11-16T04:06:37.254Z,98703.91
2022-11-16T04:09:05.984Z,98715.69
2022-11-16T04:11:34.816Z,98714.47
2022-11-16T04:14:06.548Z,98707.53
2022-11-16T04:16:36.283Z,98713.25
2022-11-16T04:19:08.223Z,98694.88
2022-11-16T04:21:40.871Z,98722.06
2022-11-16T04:24:17.328Z,98693.59
2022-11-16T04:26:50.775Z,98696.94
2022-11-16T04:29:18.440Z,98708.78
2022-11-16T04:31:46.625Z,98709.38
2022-11-16T04:34:13.919Z,98711.81
2022-11-16T04:36:46.126Z,98701.94
2022-11-16T04:39:13.125Z,98709.66
2022-11-16T04:41:40.805Z,98700.91
2022-11-16T04:44:07.889Z,98705.13
2022-11-16T04:46:36.587Z,98697.06
2022-11-16T04:49:04.315Z,98695.63
2022-11-16T04:51:31.588Z,98699.47
2022-11-16T04:53:59.256Z,98708.84
2022-11-16T04:56:27.454Z,98712.53
2022-11-16T04:58:54.769Z,98702.59
2022-11-16T05:01:22.209Z,98688.72
2022-11-16T05:03:51.952Z,98695.50
2022-11-16T05:06:19.862Z,98683.72
2022-11-16T05:08:48.450Z,98692.16
2022-11-16T05:11:16.300Z,98684.22
2022-11-16T05:13:43.462Z,98687.91
2022-11-16T05:16:10.408Z,98697.53
2022-11-16T05:18:37.448Z,98695.13
2022-11-16T05:21:05.285Z,98673.19
2022-11-16T05:23:38.775Z,98666.34
2022-11-16T05:26:10.670Z,98684.94
2022-11-16T05:28:38.254Z,98687.66
2022-11-16T05:31:05.296Z,98696.13
2022-11-16T05:33:32.522Z,98702.81
2022-11-16T05:36:00.222Z,98687.66
2022-11-16T05:38:28.976Z,98672.25
2022-11-16T05:40:58.842Z,98671.16
2022-11-16T05:43:25.748Z,98679.19
2022-11-16T05:46:03.416Z,98673.72
2022-11-16T05:48:30.680Z,98693.13
2022-11-16T05:51:00.131Z,98675.47
2022-11-16T05:53:30.529Z,98657.00
2022-11-16T05:55:58.789Z,98672.81
2022-11-16T05:58:25.812Z,98699.41
2022-11-16T06:00:53.649Z,98674.22
2022-11-16T06:03:20.650Z,98680.53
2022-11-16T06:05:47.618Z,98671.66
2022-11-16T06:08:16.782Z,98672.16
2022-11-16T06:10:43.805Z,98676.66
2022-11-16T06:13:10.815Z,98678.50
2022-11-16T06:15:39.380Z,98694.13
2022-11-16T06:18:09.102Z,98667.25
2022-11-16T06:20:38.996Z,98664.63
2022-11-16T06:23:07.393Z,98677.25
2022-11-16T06:25:35.252Z,98678.91
2022-11-16T06:28:07.558Z,98652.13
2022-11-16T06:30:35.666Z,98675.00
2022-11-16T06:33:04.537Z,98673.22
2022-11-16T06:35:33.188Z,98685.69
2022-11-16T06:38:00.552Z,98670.81
2022-11-16T06:40:27.611Z,98667.56
2022-11-16T06:42:54.451Z,98648.19
2022-11-16T06:45:21.569Z,98656.63
2022-11-16T06:47:52.999Z,98666.13
2022-11-16T06:50:20.125Z,98648.44
2022-11-16T06:52:48.117Z,98638.19
2022-11-16T06:55:16.864Z,98644.69
2022-11-16T06:57:43.892Z,98654.16
2022-11-16T07:00:11.554Z,98645.53
2022-11-16T07:02:39.559Z,98643.66
2022-11-16T07:05:09.797Z,98649.13
2022-11-16T07:07:37.421Z,98656.56
2022-11-16T07:10:05.104Z,98615.94
2022-11-16T07:12:32.137Z,98644.94
2022-11-16T07:15:00.397Z,98656.97
2022-11-16T07:17:29.660Z,98635.16
2022-11-16T07:19:57.811Z,98626.03
2022-11-16T07:22:24.812Z,98635.44
2022-11-16T07:24:53.317Z,98654.03
2022-11-16T07:27:21.237Z,98639.13
2022-11-16T07:29:50.785Z,98649.38
2022-11-16T07:32:41.339Z,98646.91
2022-11-16T07:35:27.782Z,98675.34
2022-11-16T07:37:54.736Z,98642.13
2022-11-16T07:40:22.334Z,98653.38
2022-11-16T07:42:49.841Z,98632.66
2022-11-16T07:45:45.788Z,98646.16
2022-11-16T07:48:12.936Z,98642.47
2022-11-16T07:51:14.424Z,98646.88
2022-11-16T07:53:47.847Z,98661.22
2022-11-16T07:56:14.834Z,98657.84
2022-11-16T07:58:44.358Z,98667.53
2022-11-16T08:01:15.568Z,98663.59
2022-11-16T08:03:45.055Z,98652.41
2022-11-16T08:06:28.097Z,98666.31
2022-11-16T08:08:58.604Z,98638.81
2022-11-16T08:11:27.155Z,98646.25
2022-11-16T08:13:56.322Z,98632.34
2022-11-16T08:16:23.633Z,98644.25
2022-11-16T08:18:57.778Z,98662.44
2022-11-16T08:21:25.593Z,98678.16
2022-11-16T08:23:58.540Z,98651.34
2022-11-16T08:26:27.473Z,98653.19
2022-11-16T08:29:00.793Z,98651.41
2022-11-16T08:31:32.212Z,98655.47
2022-11-16T08:34:07.277Z,98660.09
2022-11-16T08:36:36.402Z,98648.88
2022-11-16T08:39:04.804Z,98679.94
2022-11-16T08:41:32.842Z,98664.59
2022-11-16T08:44:00.871Z,98649.00
2022-11-16T08:46:28.421Z,98600.94
2022-11-16T08:49:03.816Z,98664.47
2022-11-16T08:51:30.813Z,98613.19
2022-11-16T08:54:03.324Z,98670.50
2022-11-16T08:56:31.448Z,98647.53
2022-11-16T08:58:59.542Z,98648.66
2022-11-16T09:01:30.227Z,98638.84
2022-11-16T09:03:57.387Z,98649.63
2022-11-16T09:06:26.359Z,98636.16
2022-11-16T09:08:53.304Z,98640.97
2022-11-16T09:11:23.384Z,98635.03
2022-11-16T09:13:52.724Z,98630.94
2022-11-16T09:16:20.903Z,98654.03
2022-11-16T09:18:49.992Z,98638.34
2022-11-16T09:21:22.116Z,98634.75
2022-11-16T09:23:50.405Z,98643.34
2022-11-16T09:26:18.841Z,98656.69
2022-11-16T09:28:45.687Z,98644.19
2022-11-16T09:31:12.537Z,98637.78
2022-11-16T09:33:39.530Z,98653.56
2022-11-16T09:36:08.889Z,98630.56
2022-11-16T09:39:17.780Z,98632.72
2022-11-16T09:41:56.281Z,98636.69
2022-11-16T09:45:00.811Z,98637.47
2022-11-16T09:47:51.724Z,98636.91
2022-11-16T09:50:31.938Z,98642.81
2022-11-16T09:53:23.675Z,98636.31
2022-11-16T09:55:54.420Z,98633.53
2022-11-16T09:58:31.830Z,98623.72
2022-11-16T10:01:16.196Z,98619.97
2022-11-16T10:03:48.225Z,98631.31
2022-11-16T10:06:37.255Z,98633.78
2022-11-16T10:09:05.115Z,98627.34
2022-11-16T10:11:52.988Z,98635.25
2022-11-16T10:14:48.693Z,98621.75
2022-11-16T10:17:46.070Z,98641.53
2022-11-16T10:20:40.612Z,98640.28
2022-11-16T10:23:16.455Z,98639.50
2022-11-16T10:25:57.573Z,98643.16
2022-11-16T10:29:02.983Z,98633.84
2022-11-16T10:32:01.487Z,98639.84
2022-11-16T10:34:39.991Z,98630.50
2022-11-16T10:37:07.712Z,98645.78
2022-11-16T10:39:34.922Z,98641.50
2022-11-16T10:42:07.728Z,98638.47
2022-11-16T10:44:46.654Z,98642.78
2022-11-16T10:47:49.142Z,98655.25
2022-11-16T10:50:37.440Z,98641.50
2022-11-16T10:53:04.843Z,98635.94
2022-11-16T10:55:32.001Z,98647.09
2022-11-16T10:58:05.111Z,98651.88
2022-11-16T11:00:37.116Z,98655.34
2022-11-16T11:03:04.390Z,98665.16
2022-11-16T11:05:31.758Z,98654.50
2022-11-16T11:08:03.591Z,98662.66
2022-11-16T11:10:41.680Z,98653.88
2022-11-16T11:13:11.926Z,98640.97
2022-11-16T11:15:43.106Z,98635.22
2022-11-16T11:18:15.937Z,98644.78
2022-11-16T11:20:49.912Z,98643.16
2022-11-16T11:23:25.880Z,98633.53
2022-11-16T11:26:01.771Z,98653.00
2022-11-16T11:28:32.426Z,98623.16
2022-11-16T11:31:04.076Z,98641.50
2022-11-16T11:33:35.940Z,98640.28
2022-11-16T11:36:22.685Z,98641.06
2022-11-16T11:39:04.371Z,98655.22
2022-11-16T11:41:38.979Z,98655.28
2022-11-16T11:44:17.699Z,98655.25
2022-11-16T11:47:42.241Z,98648.50
2022-11-16T11:49:54.226Z,98611.66
2022-11-16T11:52:56.841Z,98668.19
2022-11-16T11:55:23.742Z,98657.19
2022-11-16T11:57:53.243Z,98645.41
2022-11-16T12:00:20.817Z,98661.44
2022-11-16T12:02:50.462Z,98660.03
2022-11-16T12:05:26.334Z,98624.25
2022-11-16T12:08:17.712Z,98661.94
2022-11-16T12:11:00.010Z,98665.13
2022-11-16T12:13:43.215Z,98664.00
2022-11-16T12:16:35.520Z,98653.91
2022-11-16T12:19:08.562Z,98673.06
2022-11-16T12:22:19.857Z,98676.50
2022-11-16T12:25:15.028Z,98675.09
2022-11-16T12:28:23.474Z,98690.31
2022-11-16T12:31:11.780Z,98692.81
2022-11-16T12:33:50.301Z,98685.78
2022-11-16T12:36:35.694Z,98700.78
2022-11-16T12:39:23.376Z,98694.91
2022-11-16T12:42:08.360Z,98671.22
2022-11-16T12:44:56.973Z,98684.09
2022-11-16T12:48:02.164Z,98687.03
2022-11-16T12:50:52.607Z,98672.91
2022-11-16T12:53:53.695Z,98689.78
2022-11-16T12:56:29.555Z,98683.44
2022-11-16T12:59:20.666Z,98667.03
2022-11-16T13:02:09.241Z,98649.22
2022-11-16T13:04:43.669Z,98680.50
2022-11-16T13:07:24.982Z,98689.69
2022-11-16T13:10:03.207Z,98679.53
2022-11-16T13:12:32.539Z,98683.75
2022-11-16T13:15:01.990Z,98702.13
2022-11-16T13:17:33.428Z,98675.22
2022-11-16T13:20:31.583Z,98672.63
2022-11-16T13:23:07.599Z,98684.69
2022-11-16T13:26:09.942Z,98678.31
2022-11-16T13:28:50.695Z,98679.81
2022-11-16T13:31:20.678Z,98681.59
2022-11-16T13:33:51.227Z,98686.09
2022-11-16T13:36:36.650Z,98680.25
2022-11-16T13:39:07.243Z,98682.38
2022-11-16T13:41:39.364Z,98679.53
2022-11-16T13:44:16.407Z,98678.16
2022-11-16T13:47:00.735Z,98677.06
2022-11-16T13:49:35.028Z,98670.38
2022-11-16T13:52:22.462Z,98688.50
2022-11-16T13:54:54.003Z,98696.31
2022-11-16T13:57:27.068Z,98704.31
2022-11-16T14:00:21.370Z,98705.56
2022-11-16T14:02:48.719Z,98720.00
2022-11-16T14:05:33.865Z,98712.81
2022-11-16T14:08:20.691Z,98709.81
2022-11-16T14:10:50.481Z,98706.66
2022-11-16T14:13:36.032Z,98704.16
2022-11-16T14:16:15.361Z,98693.56
2022-11-16T14:18:43.985Z,98704.84
2022-11-16T14:21:19.834Z,98706.91
2022-11-16T14:24:28.990Z,98706.41
2022-11-16T14:27:17.090Z,98699.81
2022-11-16T14:30:04.592Z,98702.81
2022-11-16T14:32:41.257Z,98689.00
2022-11-16T14:35:27.570Z,98689.00
2022-11-16T14:38:01.751Z,98720.50
2022-11-16T14:40:30.788Z,98694.91
2022-11-16T14:43:16.371Z,98706.41
2022-11-16T14:45:48.413Z,98733.06
2022-11-16T14:48:19.179Z,98713.56
2022-11-16T14:51:00.311Z,98724.16
2022-11-16T14:53:29.512Z,98729.25
2022-11-16T14:56:11.478Z,98725.63
2022-11-16T14:58:39.455Z,98725.16
2022-11-16T15:01:12.829Z,98709.59
2022-11-16T15:03:53.531Z,98735.16
2022-11-16T15:06:21.922Z,98719.28
2022-11-16T15:08:52.804Z,98704.69
2022-11-16T15:11:30.773Z,98741.97
2022-11-16T15:13:57.704Z,98737.47
2022-11-16T15:16:24.544Z,98741.09
2022-11-16T15:19:02.205Z,98724.25
2022-11-16T15:21:29.429Z,98721.94
2022-11-16T15:24:15.913Z,98731.44
2022-11-16T15:26:43.567Z,98735.88
2022-11-16T15:29:28.800Z,98712.72
2022-11-16T15:31:55.945Z,98736.06
2022-11-16T15:34:22.976Z,98717.63
2022-11-16T15:36:49.968Z,98709.31
2022-11-16T15:39:27.605Z,98713.25
2022-11-16T15:42:00.371Z,98709.31
2022-11-16T15:44:33.857Z,98710.44
2022-11-16T15:47:06.428Z,98731.38
2022-11-16T15:49:37.352Z,98721.09
2022-11-16T15:52:05.833Z,98706.19
2022-11-16T15:54:35.321Z,98721.44
2022-11-16T15:57:09.166Z,98720.22
2022-11-16T15:59:37.444Z,98729.28
2022-11-16T16:02:05.037Z,98698.56
2022-11-16T16:04:32.279Z,98725.69
2022-11-16T16:07:00.830Z,98712.72
2022-11-16T16:09:34.274Z,98681.03
2022-11-16T16:12:24.688Z,98705.81
2022-11-16T16:14:53.440Z,98724.97
2022-11-16T16:17:26.413Z,98720.44
2022-11-16T16:20:07.196Z,98720.50
2022-11-16T16:22:37.758Z,98730.41
2022-11-16T16:25:06.625Z,98730.03
2022-11-16T16:27:39.931Z,98725.94
2022-11-16T16:30:07.862Z,98720.75
2022-11-16T16:32:37.219Z,98733.91
2022-11-16T16:35:07.578Z,98728.13
2022-11-16T16:37:35.645Z,98713.09
2022-11-16T16:40:04.353Z,98711.84
2022-11-16T16:42:31.377Z,98729.00
2022-11-16T16:44:59.983Z,98715.16
2022-11-16T16:47:26.914Z,98698.44
2022-11-16T16:49:56.854Z,98700.50
2022-11-16T16:52:23.928Z,98716.25
2022-11-16T16:54:51.150Z,98721.19
2022-11-16T16:57:18.821Z,98723.84
2022-11-16T16:59:49.326Z,98722.00
2022-11-16T17:02:16.792Z,98728.53
2022-11-16T17:04:44.522Z,98719.13
2022-11-16T17:07:11.847Z,98704.59
2022-11-16T17:09:39.402Z,98706.31
2022-11-16T17:12:07.422Z,98716.28
2022-11-16T17:14:35.074Z,98709.63
2022-11-16T17:17:03.597Z,98714.34
2022-11-16T17:19:30.916Z,98708.53
2022-11-16T17:21:59.238Z,98721.03
2022-11-16T17:24:27.825Z,98687.50
2022-11-16T17:26:58.578Z,98708.16
2022-11-16T17:29:26.216Z,98693.38
2022-11-16T17:31:54.287Z,98709.03
2022-11-16T17:34:21.792Z,98716.38
2022-11-16T17:36:49.315Z,98716.09
2022-11-16T17:39:17.016Z,98695.44
2022-11-16T17:41:44.718Z,98698.72
2022-11-16T17:44:21.618Z,98693.19
2022-11-16T17:46:50.040Z,98688.03
2022-11-16T17:49:20.117Z,98672.91
2022-11-16T17:51:48.202Z,98704.78
2022-11-16T17:54:15.643Z,98703.91
2022-11-16T17:56:43.603Z,98703.97
2022-11-16T17:59:10.815Z,98703.91
2022-11-16T18:01:38.233Z,98699.38
2022-11-16T18:04:05.708Z,98712.59
2022-11-16T18:06:33.161Z,98695.28
2022-11-16T18:09:00.530Z,98711.84
2022-11-16T18:11:29.252Z,98696.44
2022-11-16T18:14:01.181Z,98717.88
2022-11-16T18:16:33.502Z,98709.53
2022-11-16T18:19:09.088Z,98715.53
2022-11-16T18:21:42.357Z,98697.34
2022-11-16T18:24:11.458Z,98694.53
2022-11-16T18:26:40.147Z,98706.09
2022-11-16T18:29:09.794Z,98715.97
2022-11-16T18:31:37.155Z,98696.13
2022-11-16T18:34:08.465Z,98699.69
2022-11-16T18:36:42.801Z,98698.59
2022-11-16T18:39:10.042Z,98694.00
2022-11-16T18:41:43.326Z,98719.56
2022-11-16T18:44:12.226Z,98710.91
2022-11-16T18:46:39.634Z,98686.00
2022-11-16T18:49:07.643Z,98696.38
2022-11-16T18:51:34.895Z,98691.84
2022-11-16T18:54:02.372Z,98673.66
2022-11-16T18:56:32.417Z,98683.31
2022-11-16T18:58:59.749Z,98681.31
2022-11-16T19:01:27.851Z,98688.63
2022-11-16T19:03:56.561Z,98673.38
2022-11-16T19:06:24.541Z,98679.91
2022-11-16T19:08:56.628Z,98702.47
2022-11-16T19:11:24.469Z,98678.06
2022-11-16T19:13:57.546Z,98671.75
2022-11-16T19:16:26.521Z,98703.31
2022-11-16T19:18:53.804Z,98689.78
2022-11-16T19:21:23.145Z,98726.59
2022-11-16T19:23:52.541Z,98687.66
2022-11-16T19:26:22.346Z,98681.41
2022-11-16T19:28:58.087Z,98703.56
2022-11-16T19:31:28.206Z,98692.38
2022-11-16T19:33:58.870Z,98693.78
2022-11-16T19:36:27.733Z,98711.84
2022-11-16T19:38:55.296Z,98702.16
2022-11-16T19:41:24.888Z,98703.84
2022-11-16T19:43:54.180Z,98694.56
2022-11-16T19:46:21.292Z,98693.63
2022-11-16T19:48:48.519Z,98675.25
2022-11-16T19:51:21.009Z,98689.16
2022-11-16T19:53:48.841Z,98702.97
2022-11-16T19:56:18.238Z,98675.09
2022-11-16T19:58:46.419Z,98650.53
2022-11-16T20:01:15.075Z,98683.81
2022-11-16T20:03:42.436Z,98683.66
2022-11-16T20:06:17.637Z,98658.94
2022-11-16T20:08:50.090Z,98701.72
2022-11-16T20:11:23.076Z,98663.00
2022-11-16T20:13:52.546Z,98683.34
2022-11-16T20:16:21.872Z,98662.25
2022-11-16T20:18:50.152Z,98667.44
2022-11-16T20:21:27.994Z,98659.56
2022-11-16T20:24:00.265Z,98662.63
2022-11-16T20:26:33.008Z,98660.88
2022-11-16T20:29:00.707Z,98655.56
2022-11-16T20:31:30.407Z,98682.81
2022-11-16T20:34:05.865Z,98657.25
2022-11-16T20:36:34.884Z,98661.91
2022-11-16T20:39:02.009Z,98667.09
2022-11-16T20:41:30.758Z,98662.22
2022-11-16T20:44:02.435Z,98665.91
2022-11-16T20:46:32.427Z,98655.91
2022-11-16T20:49:00.399Z,98686.47
2022-11-16T20:51:28.775Z,98654.28
2022-11-16T20:53:56.403Z,98641.31
2022-11-16T20:56:23.370Z,98665.22
2022-11-16T20:58:50.819Z,98651.19
2022-11-16T21:01:19.149Z,98651.72
2022-11-16T21:03:46.327Z,98688.97
2022-11-16T21:06:14.623Z,98686.97
2022-11-16T21:08:42.305Z,98674.75
2022-11-16T21:11:21.390Z,98671.69
2022-11-16T21:13:51.341Z,98664.38
2022-11-16T21:16:18.451Z,98657.47
2022-11-16T21:18:45.342Z,98683.03
2022-11-16T21:21:14.129Z,98684.84
2022-11-16T21:23:43.124Z,98667.78
2022-11-16T21:26:15.390Z,98647.72
2022-11-16T21:28:42.397Z,98674.19
2022-11-16T21:31:17.954Z,98663.22
2022-11-16T21:33:45.800Z,98663.75
2022-11-16T21:36:15.327Z,98658.81
2022-11-16T21:38:42.863Z,98654.88
2022-11-16T21:41:11.474Z,98655.81
2022-11-16T21:43:38.977Z,98654.78
2022-11-16T21:46:20.104Z,98654.25
2022-11-16T21:48:47.789Z,98636.84
2022-11-16T21:51:17.759Z,98651.47
2022-11-16T21:53:44.803Z,98660.78
2022-11-16T21:56:15.625Z,98636.25
2022-11-16T21:58:44.452Z,98666.06
2022-11-16T22:01:12.775Z,98627.03
2022-11-16T22:03:39.891Z,98639.97
2022-11-16T22:06:11.896Z,98634.72
2022-11-16T22:08:40.542Z,98626.50
2022-11-16T22:11:08.669Z,98621.03
2022-11-16T22:13:37.157Z,98586.78
2022-11-16T22:16:15.093Z,98646.22
2022-11-16T22:18:43.076Z,98633.50
2022-11-16T22:21:11.240Z,98642.88
2022-11-16T22:23:38.894Z,98635.84
2022-11-16T22:26:08.903Z,98611.28
2022-11-16T22:28:37.931Z,98614.28
2022-11-16T22:31:06.732Z,98627.34
2022-11-16T22:33:35.315Z,98621.97
2022-11-16T22:36:04.511Z,98622.31
2022-11-16T22:38:34.600Z,98609.09
2022-11-16T22:41:01.543Z,98622.06
2022-11-16T22:43:33.844Z,98642.53
2022-11-16T22:46:03.981Z,98625.00
2022-11-16T22:48:39.569Z,98622.81
2022-11-16T22:51:18.421Z,98605.44
2022-11-16T22:53:45.513Z,98607.53
2022-11-16T22:56:13.408Z,98599.91
2022-11-16T22:58:40.633Z,98606.19
2022-11-16T23:01:09.422Z,98583.47
2022-11-16T23:03:37.735Z,98610.84
2022-11-16T23:06:06.253Z,98591.31
2022-11-16T23:08:34.597Z,98599.84
2022-11-16T23:11:08.079Z,98621.91
2022-11-16T23:13:38.081Z,98587.69
2022-11-16T23:16:05.609Z,98614.38
2022-11-16T23:18:32.861Z,98612.53
2022-11-16T23:21:00.271Z,98604.19
2022-11-16T23:23:27.130Z,98615.81
2022-11-16T23:26:00.493Z,98620.38
2022-11-16T23:28:28.062Z,98628.69
2022-11-16T23:30:55.439Z,98632.44
2022-11-16T23:33:24.881Z,98618.06
2022-11-16T23:35:51.945Z,98613.88
2022-11-16T23:38:19.107Z,98602.19
2022-11-16T23:40:46.583Z,98601.34
2022-11-16T23:43:16.921Z,98611.03
2022-11-16T23:45:44.848Z,98591.41
2022-11-16T23:48:18.252Z,98604.28
2022-11-16T23:50:49.628Z,98587.03
2022-11-16T23:53:16.742Z,98585.53
2022-11-16T23:56:05.805Z,98582.00
2022-11-16T23:58:36.691Z,98596.31
